createdAt,value
2022-11-15T00:04:45.954Z,9.39
2022-11-15T00:10:05.877Z,9.53
2022-11-15T00:15:23.124Z,9.55
2022-11-15T00:20:40.672Z,9.52
2022-11-15T00:26:00.162Z,9.36
2022-11-15T00:31:18.420Z,9.33
2022-11-15T00:36:38.926Z,9.50
2022-11-15T00:41:55.234Z,9.53
2022-11-15T00:47:12.164Z,9.50
2022-11-15T00:52:28.882Z,9.45
2022-11-15T00:57:45.567Z,9.43
2022-11-15T01:03:06.165Z,9.41
2022-11-15T01:08:23.623Z,9.43
2022-11-15T01:13:43.880Z,9.35
2022-11-15T01:19:01.941Z,9.50
2022-11-15T01:24:18.556Z,9.42
2022-11-15T01:29:42.420Z,9.46
2022-11-15T01:35:00.251Z,9.52
2022-11-15T01:40:17.798Z,9.53
2022-11-15T01:45:34.495Z,9.51
2022-11-15T01:50:50.244Z,9.57
2022-11-15T01:56:13.469Z,9.64
2022-11-15T02:01:36.362Z,9.43
2022-11-15T02:06:54.328Z,9.66
2022-11-15T02:12:13.432Z,9.36
2022-11-15T02:17:36.549Z,9.40
2022-11-15T02:23:11.562Z,9.64
2022-11-15T02:28:40.042Z,9.44
2022-11-15T02:34:02.990Z,9.40
2022-11-15T02:39:31.477Z,9.17
2022-11-15T02:44:51.492Z,9.22
2022-11-15T02:50:12.193Z,9.41
2022-11-15T02:55:31.892Z,9.37
2022-11-15T03:00:56.994Z,9.46
2022-11-15T03:06:13.969Z,9.43
2022-11-15T03:11:29.874Z,9.45
2022-11-15T03:16:51.056Z,9.25
2022-11-15T03:22:11.639Z,9.36
2022-11-15T03:27:31.575Z,9.28
2022-11-15T03:33:12.391Z,9.32
2022-11-15T03:38:31.425Z,9.51
2022-11-15T03:43:53.751Z,9.61
2022-11-15T03:49:13.064Z,9.18
2022-11-15T03:54:33.346Z,9.21
2022-11-15T03:59:53.242Z,9.00
2022-11-15T04:05:12.539Z,8.69
2022-11-15T04:10:32.062Z,9.06
2022-11-15T04:15:49.469Z,9.25
2022-11-15T04:21:29.957Z,9.35
2022-11-15T04:26:47.397Z,9.22
2022-11-15T04:32:07.843Z,9.48
2022-11-15T04:37:31.596Z,9.16
2022-11-15T04:42:48.932Z,8.92
2022-11-15T04:48:08.987Z,9.28
2022-11-15T04:53:36.553Z,9.51
2022-11-15T04:58:52.840Z,9.47
2022-11-15T05:04:22.283Z,9.79
2022-11-15T05:09:38.581Z,9.63
2022-11-15T05:14:55.885Z,9.07
2022-11-15T05:20:13.801Z,9.21
2022-11-15T05:25:35.579Z,9.34
2022-11-15T05:30:53.632Z,9.46
2022-11-15T05:36:21.973Z,9.16
2022-11-15T05:41:39.401Z,9.71
2022-11-15T05:46:56.934Z,9.50
2022-11-15T05:52:17.540Z,9.59
2022-11-15T05:57:33.806Z,9.79
2022-11-15T06:02:52.905Z,9.66
2022-11-15T06:08:09.920Z,9.59
2022-11-15T06:13:26.255Z,9.11
2022-11-15T06:18:47.917Z,9.47
2022-11-15T06:24:06.168Z,9.61
2022-11-15T06:29:28.713Z,9.81
2022-11-15T06:34:48.269Z,10.15
2022-11-15T06:40:05.835Z,10.09
2022-11-15T06:45:23.243Z,9.74
2022-11-15T06:50:40.578Z,10.18
2022-11-15T06:56:02.813Z,10.03
2022-11-15T07:01:23.468Z,10.04
2022-11-15T07:06:40.203Z,9.98
2022-11-15T07:11:57.674Z,9.20
2022-11-15T07:17:17.857Z,9.13
2022-11-15T07:22:36.905Z,9.24
2022-11-15T07:27:58.207Z,9.61
2022-11-15T07:33:15.921Z,9.36
2022-11-15T07:38:40.975Z,9.33
2022-11-15T07:44:03.079Z,9.49
2022-11-15T07:49:21.282Z,9.24
2022-11-15T07:54:44.928Z,9.79
2022-11-15T08:00:04.368Z,9.82
2022-11-15T08:05:25.021Z,9.67
2022-11-15T08:10:45.006Z,9.27
2022-11-15T08:16:03.324Z,9.90
2022-11-15T08:21:24.380Z,10.71
2022-11-15T08:26:41.390Z,9.78
2022-11-15T08:32:02.078Z,9.64
2022-11-15T08:37:19.925Z,9.61
2022-11-15T08:42:37.871Z,9.84
2022-11-15T08:47:54.590Z,10.38
2022-11-15T08:53:16.101Z,10.81
2022-11-15T08:58:34.561Z,10.31
2022-11-15T09:03:54.706Z,10.76
2022-11-15T09:09:14.618Z,10.11
2022-11-15T09:14:33.888Z,9.81
2022-11-15T09:19:50.279Z,9.57
2022-11-15T09:25:10.995Z,9.79
2022-11-15T09:30:28.208Z,10.17
2022-11-15T09:35:48.257Z,10.15
2022-11-15T09:41:10.651Z,10.12
2022-11-15T09:46:43.083Z,10.38
2022-11-15T09:51:53.966Z,10.44
2022-11-15T09:56:54.948Z,10.17
2022-11-15T10:02:04.451Z,10.33
2022-11-15T10:07:25.586Z,10.39
2022-11-15T10:12:27.151Z,10.55
2022-11-15T10:17:28.928Z,10.36
2022-11-15T10:22:30.214Z,10.78
2022-11-15T10:27:30.917Z,10.55
2022-11-15T10:32:33.192Z,10.74
2022-11-15T10:37:34.765Z,10.78
2022-11-15T10:42:35.203Z,10.89
2022-11-15T10:47:40.018Z,10.81
2022-11-15T10:52:49.363Z,10.99
2022-11-15T10:57:51.681Z,10.79
2022-11-15T11:02:59.755Z,10.56
2022-11-15T11:08:03.413Z,10.87
2022-11-15T11:13:17.087Z,10.85
2022-11-15T11:18:29.737Z,10.56
2022-11-15T11:23:43.989Z,10.71
2022-11-15T11:29:01.736Z,10.78
2022-11-15T11:34:11.881Z,10.98
2022-11-15T11:40:06.114Z,10.77
2022-11-15T11:45:12.572Z,10.72
2022-11-15T11:50:21.880Z,11.09
2022-11-15T11:55:20.537Z,10.80
2022-11-15T12:00:45.385Z,10.84
2022-11-15T12:06:04.401Z,10.91
2022-11-15T12:11:22.812Z,10.81
2022-11-15T12:16:28.917Z,10.71
2022-11-15T12:21:50.362Z,10.86
2022-11-15T12:26:55.143Z,11.06
2022-11-15T12:32:11.612Z,10.56
2022-11-15T12:37:51.372Z,10.51
2022-11-15T12:43:01.135Z,10.81
2022-11-15T12:48:23.702Z,10.99
2022-11-15T12:53:25.171Z,11.00
2022-11-15T12:58:27.885Z,11.25
2022-11-15T13:03:25.959Z,11.35
2022-11-15T13:08:41.037Z,11.22
2022-11-15T13:13:44.357Z,11.32
2022-11-15T13:18:58.317Z,11.44
2022-11-15T13:24:12.403Z,11.02
2022-11-15T13:29:35.217Z,11.31
2022-11-15T13:34:51.707Z,11.47
2022-11-15T13:40:11.882Z,11.32
2022-11-15T13:45:18.348Z,11.25
2022-11-15T13:50:22.260Z,11.25
2022-11-15T13:55:23.197Z,11.14
2022-11-15T14:00:42.947Z,11.04
2022-11-15T14:05:43.348Z,10.94
2022-11-15T14:10:44.111Z,10.85
2022-11-15T14:15:43.944Z,10.90
2022-11-15T14:20:46.121Z,10.99
2022-11-15T14:25:53.802Z,10.84
2022-11-15T14:30:57.080Z,10.86
2022-11-15T14:35:56.104Z,10.77
2022-11-15T14:41:01.841Z,10.93
2022-11-15T14:46:03.643Z,10.94
2022-11-15T14:51:04.564Z,10.92
2022-11-15T14:56:17.827Z,10.73
2022-11-15T15:06:56.356Z,10.63
2022-11-15T15:11:59.804Z,10.59
2022-11-15T15:17:02.848Z,10.26
2022-11-15T15:22:01.561Z,10.10
2022-11-15T15:27:05.246Z,10.09
2022-11-15T15:32:11.863Z,10.18
2022-11-15T15:37:27.523Z,10.02
2022-11-15T15:42:42.848Z,9.99
2022-11-15T15:47:43.879Z,10.02
2022-11-15T15:52:51.124Z,10.00
2022-11-15T15:58:01.159Z,10.02
2022-11-15T16:03:05.536Z,10.07
2022-11-15T16:09:00.437Z,10.04
2022-11-15T16:14:01.625Z,9.87
2022-11-15T16:19:15.745Z,9.86
2022-11-15T16:24:15.063Z,9.56
2022-11-15T16:29:19.680Z,9.34
2022-11-15T16:34:22.872Z,9.73
2022-11-15T16:39:42.690Z,9.68
2022-11-15T16:44:53.405Z,9.74
2022-11-15T16:50:02.986Z,9.92
2022-11-15T16:55:06.786Z,10.05
2022-11-15T17:00:18.905Z,9.95
2022-11-15T17:05:26.161Z,9.60
2022-11-15T17:10:55.430Z,10.02
2022-11-15T17:17:15.256Z,9.87
2022-11-15T17:22:18.673Z,9.97
2022-11-15T17:27:27.972Z,10.08
2022-11-15T17:32:46.066Z,9.88
2022-11-15T17:37:52.081Z,10.03
2022-11-15T17:43:08.802Z,9.97
2022-11-15T17:48:10.378Z,9.84
2022-11-15T17:53:10.273Z,9.82
2022-11-15T17:58:11.777Z,9.84
2022-11-15T18:03:18.882Z,9.90
2022-11-15T18:08:30.835Z,9.85
2022-11-15T18:19:25.602Z,9.96
2022-11-15T18:25:12.336Z,10.03
2022-11-15T18:30:36.272Z,9.73
2022-11-15T18:35:50.532Z,9.79
2022-11-15T18:40:56.526Z,9.84
2022-11-15T18:46:27.663Z,9.78
2022-11-15T18:51:50.486Z,9.60
2022-11-15T18:56:59.783Z,9.57
2022-11-15T19:02:05.360Z,9.52
2022-11-15T19:07:20.702Z,9.67
2022-11-15T19:12:25.358Z,9.75
2022-11-15T19:17:33.576Z,9.78
2022-11-15T19:22:35.136Z,9.71
2022-11-15T19:27:45.730Z,9.87
2022-11-15T19:33:05.205Z,9.85
2022-11-15T19:38:24.669Z,9.76
2022-11-15T19:43:27.666Z,9.76
2022-11-15T19:48:28.931Z,9.83
2022-11-15T19:53:35.131Z,9.61
2022-11-15T19:59:01.085Z,9.77
2022-11-15T20:04:05.186Z,9.78
2022-11-15T20:09:06.066Z,9.76
2022-11-15T20:14:09.927Z,9.71
2022-11-15T20:19:09.175Z,9.49
2022-11-15T20:24:10.383Z,9.62
2022-11-15T20:29:12.877Z,9.42
2022-11-15T20:34:15.985Z,9.12
2022-11-15T20:39:17.523Z,9.33
2022-11-15T20:44:16.130Z,9.41
2022-11-15T20:49:19.581Z,9.14
2022-11-15T20:54:30.806Z,9.36
2022-11-15T21:05:22.854Z,9.53
2022-11-15T21:10:48.215Z,9.56
2022-11-15T21:15:48.593Z,9.55
2022-11-15T21:20:53.752Z,9.44
2022-11-15T21:25:58.163Z,9.45
2022-11-15T21:31:12.858Z,9.52
2022-11-15T21:36:17.871Z,9.49
2022-11-15T21:41:17.120Z,9.64
2022-11-15T21:46:23.881Z,9.64
2022-11-15T21:51:24.887Z,9.51
2022-11-15T21:56:27.001Z,9.41
2022-11-15T22:01:47.889Z,9.30
2022-11-15T22:06:47.250Z,9.33
2022-11-15T22:11:54.296Z,9.26
2022-11-15T22:16:56.708Z,9.17
2022-11-15T22:22:00.260Z,9.21
2022-11-15T22:27:01.582Z,9.15
2022-11-15T22:32:09.758Z,9.27
2022-11-15T22:37:20.694Z,9.52
2022-11-15T22:42:29.600Z,9.49
2022-11-15T22:47:32.032Z,9.45
2022-11-15T22:52:39.071Z,9.32
2022-11-15T22:57:48.068Z,9.25
2022-11-15T23:02:53.326Z,9.18
2022-11-15T23:08:02.130Z,9.20
2022-11-15T23:13:18.266Z,9.10
2022-11-15T23:18:27.241Z,9.02
2022-11-15T23:23:32.218Z,9.07
2022-11-15T23:28:35.052Z,8.96
2022-11-15T23:33:56.988Z,8.96
2022-11-15T23:38:59.189Z,9.00
2022-11-15T23:44:05.556Z,9.03
2022-11-15T23:49:11.664Z,9.04
2022-11-15T23:54:17.742Z,8.98
2022-11-15T23:59:20.670Z,9.07
